Time;durP1;ratioP1;P1;durP2;ratioP2;P2;SDS_P1;SDS_P2;PMS_P1;PMS_P2;Temp;Humidity;BMP_temperature;BMP_pressure;BME280_temperature;BME280_humidity;BME280_pressure;Samples;Min_cycle;Max_cycle;Signal;HPM_P1;HPM_P2
2022/08/12 00:44:26;;;;;;;3.38;3.08;;;27.60;53.60;;;;;;5043890;28;20172;-68
2022/08/12 00:47:00;;;;;;;4.72;3.78;;;27.60;53.40;;;;;;5054882;28;20037;-69
2022/08/12 00:49:28;;;;;;;5.18;3.88;;;27.60;53.40;;;;;;5055173;28;20033;-68
2022/08/12 00:52:10;;;;;;;5.50;4.03;;;27.50;53.50;;;;;;5054782;28;20116;-69
2022/08/12 00:54:44;;;;;;;4.55;4.00;;;27.60;53.50;;;;;;5054709;28;20488;-68
2022/08/12 00:57:21;;;;;;;4.60;3.63;;;27.50;53.40;;;;;;5054970;28;20033;-69
2022/08/12 00:59:49;;;;;;;4.90;3.85;;;27.50;53.60;;;;;;5054837;28;20033;-68
2022/08/12 01:02:28;;;;;;;4.85;4.35;;;27.50;53.70;;;;;;5068857;28;20483;-68
2022/08/12 01:13:26;;;;;;;5.60;3.33;;;27.50;53.80;;;;;;5070042;28;20025;-68
2022/08/12 01:15:57;;;;;;;6.32;3.90;;;27.50;53.80;;;;;;5054203;28;20052;-68
2022/08/12 01:18:31;;;;;;;5.10;3.67;;;27.60;53.80;;;;;;5054315;28;20075;-68
2022/08/12 01:21:35;;;;;;;3.40;3.10;;;27.60;53.80;;;;;;5060662;28;20025;-68
2022/08/12 01:24:27;;;;;;;4.68;4.28;;;27.60;53.80;;;;;;5059391;28;20859;-68
2022/08/12 01:26:55;;;;;;;4.30;3.92;;;27.60;53.70;;;;;;5061447;28;20043;-68
2022/08/12 01:29:29;;;;;;;4.85;3.53;;;27.50;53.70;;;;;;5070432;28;20027;-68
2022/08/12 01:31:58;;;;;;;5.18;3.60;;;27.50;53.70;;;;;;5052918;28;20040;-68
2022/08/12 01:34:31;;;;;;;3.38;3.08;;;27.70;53.70;;;;;;5053675;28;20025;-69
2022/08/12 01:37:03;;;;;;;3.67;3.38;;;27.50;53.60;;;;;;5053678;28;20111;-68
2022/08/12 01:39:39;;;;;;;4.87;4.47;;;27.60;53.60;;;;;;5054156;28;20476;-69
2022/08/12 01:42:08;;;;;;;3.75;3.33;;;27.60;53.00;;;;;;5053819;28;20560;-69
2022/08/12 01:44:35;;;;;;;4.00;3.60;;;27.60;53.60;;;;;;5053703;28;20056;-69
2022/08/12 01:47:10;;;;;;;3.42;3.13;;;27.60;53.70;;;;;;5053901;28;20037;-68
2022/08/12 01:50:06;;;;;;;6.90;3.58;;;27.40;53.70;;;;;;5052687;28;20040;-69
2022/08/12 01:52:53;;;;;;;4.50;3.60;;;27.60;53.90;;;;;;5052472;28;20042;-69
2022/08/12 01:55:33;;;;;;;4.07;3.67;;;27.50;53.90;;;;;;5055333;28;20108;-68
2022/08/12 01:58:23;;;;;;;3.95;3.47;;;27.50;53.60;;;;;;5073486;28;20046;-69
2022/08/12 02:00:58;;;;;;;4.38;3.55;;;27.40;53.90;;;;;;5073509;28;20484;-68
2022/08/12 02:13:20;;;;;;;3.13;2.67;;;27.60;53.90;;;;;;5048939;28;20389;-69
2022/08/12 02:16:16;;;;;;;3.38;3.08;;;27.50;53.90;;;;;;4971937;28;20470;-69
2022/08/12 02:19:15;;;;;;;3.67;3.38;;;27.50;53.80;;;;;;4972033;28;20057;-68
2022/08/12 02:21:49;;;;;;;3.30;3.03;;;27.50;53.90;;;;;;4957077;28;20039;-69
2022/08/12 02:24:20;;;;;;;3.58;3.28;;;27.50;53.80;;;;;;4954073;28;20057;-68
2022/08/12 02:26:48;;;;;;;5.72;3.47;;;27.40;53.70;;;;;;4968158;28;20046;-69
2022/08/12 02:29:14;;;;;;;4.35;2.80;;;27.50;53.60;;;;;;4967999;28;20427;-69
2022/08/12 02:31:44;;;;;;;3.55;3.25;;;27.50;53.60;;;;;;4965443;28;20090;-68
2022/08/12 02:34:13;;;;;;;4.03;3.53;;;27.50;53.70;;;;;;4971923;28;20039;-68
2022/08/12 02:36:40;;;;;;;5.13;3.10;;;27.40;53.80;;;;;;4971544;28;20142;-69
2022/08/12 02:39:09;;;;;;;3.65;3.08;;;27.40;53.70;;;;;;4971370;28;20078;-68
2022/08/12 02:41:38;;;;;;;5.50;3.45;;;27.50;54.00;;;;;;4966262;28;20058;-68
2022/08/12 02:44:08;;;;;;;4.18;3.30;;;27.40;54.00;;;;;;4952125;29;20074;-68
2022/08/12 02:46:36;;;;;;;4.00;3.10;;;27.40;54.00;;;;;;4936175;29;20508;-69
2022/08/12 02:49:21;;;;;;;2.65;2.45;;;27.40;54.00;;;;;;4944183;29;20125;-68
2022/08/12 02:51:47;;;;;;;5.40;3.58;;;27.50;54.00;;;;;;4935779;28;20051;-68
2022/08/12 02:54:14;;;;;;;4.20;2.55;;;27.50;54.00;;;;;;4990837;28;20042;-68
2022/08/12 02:56:41;;;;;;;5.00;2.85;;;27.40;54.00;;;;;;5026660;28;20060;-68
2022/08/12 02:59:15;;;;;;;3.22;2.92;;;27.50;53.90;;;;;;5032573;28;20045;-68
2022/08/12 03:01:52;;;;;;;2.95;2.75;;;27.60;53.90;;;;;;5031199;28;20057;-69
2022/08/12 03:04:45;;;;;;;2.67;2.33;;;27.50;53.90;;;;;;5032586;28;20038;-70
2022/08/12 03:07:20;;;;;;;3.47;3.05;;;27.60;53.80;;;;;;4996333;28;20448;-69
2022/08/12 03:09:58;;;;;;;3.35;3.05;;;27.50;53.70;;;;;;5010035;28;20046;-68
2022/08/12 03:12:25;;;;;;;3.45;3.08;;;27.50;53.80;;;;;;5010111;28;20041;-68
2022/08/12 03:14:53;;;;;;;3.38;2.70;;;27.40;53.70;;;;;;5009999;28;20038;-69
2022/08/12 03:17:35;;;;;;;4.72;3.03;;;27.50;53.60;;;;;;5010146;28;20044;-68
2022/08/12 03:20:04;;;;;;;2.80;2.42;;;27.40;53.60;;;;;;4990319;28;20117;-69
2022/08/12 03:22:32;;;;;;;2.95;2.55;;;27.40;53.60;;;;;;5005547;28;20735;-68
2022/08/12 03:25:03;;;;;;;4.43;3.10;;;27.40;53.80;;;;;;5029592;28;20120;-69
2022/08/12 03:27:30;;;;;;;3.30;3.00;;;27.30;53.80;;;;;;5004194;28;20030;-68
2022/08/12 03:29:57;;;;;;;6.80;3.17;;;27.30;53.90;;;;;;5009934;28;20125;-68
2022/08/12 03:32:25;;;;;;;4.53;3.35;;;27.50;54.00;;;;;;5009805;28;20419;-68
2022/08/12 03:34:55;;;;;;;2.60;2.25;;;27.40;54.00;;;;;;5009702;28;20160;-68
2022/08/12 03:37:24;;;;;;;5.93;3.38;;;27.50;54.00;;;;;;5009535;28;20053;-69
2022/08/12 03:39:50;;;;;;;3.63;3.33;;;27.30;54.00;;;;;;5009360;28;20088;-68
2022/08/12 03:42:29;;;;;;;3.72;2.90;;;27.50;53.90;;;;;;5009589;28;20034;-70
2022/08/12 04:01:57;;;;;;;3.30;3.00;;;27.10;51.10;;;;;;5051561;28;20044;-71
2022/08/12 04:04:32;;;;;;;4.80;3.00;;;27.10;51.30;;;;;;5052070;28;20128;-72
2022/08/12 04:07:05;;;;;;;3.55;3.10;;;27.00;51.20;;;;;;5051887;28;20060;-71
2022/08/12 04:09:32;;;;;;;5.53;3.17;;;27.00;51.40;;;;;;5052035;28;20121;-72
2022/08/12 04:14:42;;;;;;;3.67;3.15;;;27.30;55.60;;;;;;5051628;28;20025;-71
2022/08/12 04:17:10;;;;;;;3.45;3.22;;;27.60;57.10;;;;;;5051361;28;20653;-71
2022/08/12 04:19:37;;;;;;;3.63;3.25;;;27.70;57.10;;;;;;5060013;28;20032;-72
2022/08/12 04:22:03;;;;;;;3.53;3.15;;;27.60;53.60;;;;;;5053779;28;20032;-72
2022/08/12 04:24:34;;;;;;;9.82;3.35;;;27.60;53.00;;;;;;5047284;28;20094;-73
2022/08/12 04:27:01;;;;;;;5.93;3.25;;;27.70;52.70;;;;;;5031569;28;20060;-73
2022/08/12 04:29:27;;;;;;;4.63;3.83;;;27.50;52.80;;;;;;5031768;28;20116;-73
2022/08/12 04:31:54;;;;;;;5.30;4.20;;;27.40;53.00;;;;;;5031953;28;20046;-74
2022/08/12 04:34:22;;;;;;;6.43;3.10;;;27.50;53.10;;;;;;5031593;28;20037;-75
2022/08/12 04:36:48;;;;;;;5.55;3.38;;;27.40;53.40;;;;;;5051519;28;20025;-74
2022/08/12 04:39:16;;;;;;;3.85;3.13;;;27.40;53.50;;;;;;5051169;28;20025;-74
2022/08/12 04:41:43;;;;;;;6.13;3.60;;;27.30;53.50;;;;;;5050254;28;20049;-73
2022/08/12 04:44:09;;;;;;;4.20;3.55;;;27.40;53.70;;;;;;5051341;28;20037;-74
2022/08/12 04:46:35;;;;;;;3.53;3.22;;;27.30;53.70;;;;;;5050507;28;20478;-75
2022/08/12 04:49:03;;;;;;;7.13;3.85;;;27.50;53.50;;;;;;5050179;28;20033;-76
2022/08/12 04:51:29;;;;;;;3.92;3.17;;;27.40;53.20;;;;;;5050360;28;20118;-74
2022/08/12 04:53:55;;;;;;;2.05;1.92;;;27.50;53.30;;;;;;5045224;28;20056;-73
2022/08/12 04:56:22;;;;;;;1.55;1.45;;;27.40;53.20;;;;;;5050403;28;20025;-73
2022/08/12 04:58:48;;;;;;;2.63;2.42;;;27.30;51.80;;;;;;5028369;28;20041;-73
2022/08/12 05:01:14;;;;;;;1.55;0.98;;;27.20;52.20;;;;;;5050570;28;20104;-72
2022/08/12 05:03:40;;;;;;;2.28;2.03;;;27.20;52.50;;;;;;5052755;28;20056;-73
2022/08/12 05:06:07;;;;;;;2.90;2.67;;;27.20;52.70;;;;;;5054014;28;20033;-76
2022/08/12 05:08:34;;;;;;;8.63;3.33;;;27.10;53.10;;;;;;5053836;28;20063;-77
2022/08/12 05:11:00;;;;;;;4.30;3.33;;;27.20;54.00;;;;;;5053951;28;20029;-75
2022/08/12 05:13:37;;;;;;;2.35;2.15;;;27.30;54.70;;;;;;5054112;28;20028;-74
2022/08/12 05:16:08;;;;;;;3.97;2.42;;;27.20;55.10;;;;;;5047899;28;20100;-74
2022/08/12 05:18:36;;;;;;;2.50;2.03;;;27.30;55.20;;;;;;5061127;28;20033;-78
2022/08/12 05:21:03;;;;;;;0.90;0.90;;;27.30;55.40;;;;;;5053791;28;20468;-75
2022/08/12 05:23:32;;;;;;;3.53;2.65;;;27.40;55.20;;;;;;5052893;28;20367;-72
2022/08/12 05:25:59;;;;;;;3.53;1.77;;;27.40;55.60;;;;;;5052790;28;20100;-76
2022/08/12 05:28:27;;;;;;;3.15;2.63;;;27.30;55.80;;;;;;5053074;28;20041;-75
2022/08/12 05:30:55;;;;;;;3.65;2.10;;;27.50;55.60;;;;;;5054453;28;20549;-76
2022/08/12 05:33:25;;;;;;;2.85;2.28;;;27.40;55.50;;;;;;5053846;28;20036;-76
2022/08/12 05:35:51;;;;;;;4.13;2.80;;;27.40;56.20;;;;;;5054531;28;20025;-74
2022/08/12 05:41:17;;;;;;;3.15;2.67;;;27.50;55.80;;;;;;5053512;28;20190;-73
2022/08/12 05:43:52;;;;;;;2.95;1.40;;;27.30;56.00;;;;;;5053048;28;20041;-76
2022/08/12 05:46:21;;;;;;;1.65;1.55;;;27.50;55.30;;;;;;5053488;28;20052;-71
2022/08/12 05:48:48;;;;;;;1.08;1.00;;;27.40;55.70;;;;;;5053149;28;20061;-73
2022/08/12 05:51:15;;;;;;;2.22;1.60;;;27.40;55.50;;;;;;5053462;28;20469;-76
2022/08/12 05:53:42;;;;;;;0.80;0.77;;;27.50;55.40;;;;;;5053760;28;20037;-74
2022/08/12 05:56:29;;;;;;;1.10;1.05;;;27.50;55.60;;;;;;5051582;28;20123;-71
2022/08/12 05:58:56;;;;;;;6.38;4.50;;;27.50;55.00;;;;;;5050783;28;20033;-73
2022/08/12 06:01:24;;;;;;;6.50;4.57;;;27.50;54.90;;;;;;5052965;28;20154;-74
2022/08/12 06:03:51;;;;;;;5.00;3.80;;;27.50;55.20;;;;;;5050106;28;20033;-71
2022/08/12 06:06:18;;;;;;;6.90;4.10;;;27.60;55.00;;;;;;5046600;28;20041;-69
2022/08/12 06:08:52;;;;;;;4.40;4.00;;;27.50;55.00;;;;;;5042832;28;20044;-73
2022/08/12 06:11:19;;;;;;;5.20;4.70;;;27.40;55.00;;;;;;5053686;28;20040;-71
2022/08/12 06:13:45;;;;;;;5.15;4.30;;;27.60;55.00;;;;;;5046570;28;20037;-71
2022/08/12 06:16:14;;;;;;;5.93;3.97;;;27.50;55.00;;;;;;5049295;28;20029;-72
2022/08/12 06:18:41;;;;;;;7.13;4.00;;;27.50;55.00;;;;;;5046974;28;20028;-73
2022/08/12 06:21:08;;;;;;;3.83;3.47;;;27.60;55.10;;;;;;5052299;28;20033;-74
2022/08/12 06:23:35;;;;;;;6.97;4.57;;;27.50;55.40;;;;;;5052317;28;20040;-72
2022/08/12 06:26:01;;;;;;;6.40;3.97;;;27.40;55.80;;;;;;5052618;28;20031;-70
2022/08/12 06:28:29;;;;;;;5.85;3.95;;;27.50;56.00;;;;;;5052626;28;20021;-73
2022/08/12 06:30:56;;;;;;;4.35;3.83;;;27.70;56.00;;;;;;5053236;28;20421;-72
2022/08/12 06:33:23;;;;;;;6.85;4.75;;;27.50;55.20;;;;;;5053199;28;20044;-70
2022/08/12 06:35:50;;;;;;;5.13;4.63;;;27.50;55.80;;;;;;5034104;28;20068;-70
2022/08/12 06:38:19;;;;;;;4.40;4.00;;;27.40;55.60;;;;;;5052937;28;20473;-69
2022/08/12 06:43:32;;;;;;;1.40;1.30;;;27.50;55.30;;;;;;5048695;28;20033;-70
2022/08/12 06:45:58;;;;;;;1.92;1.83;;;27.50;56.70;;;;;;5049740;28;20036;-69
2022/08/12 06:48:26;;;;;;;5.80;4.45;;;27.60;57.50;;;;;;5049247;28;20029;-71
2022/08/12 06:50:54;;;;;;;7.97;5.55;;;27.70;57.30;;;;;;5046757;28;20095;-68
2022/08/12 06:53:22;;;;;;;5.05;4.55;;;27.80;55.00;;;;;;5044235;28;20532;-70
2022/08/12 06:55:49;;;;;;;6.85;4.20;;;27.80;54.40;;;;;;5049526;28;20516;-70
2022/08/12 06:58:19;;;;;;;5.07;4.57;;;27.80;55.00;;;;;;5049776;28;20044;-69
2022/08/12 07:00:46;;;;;;;8.52;5.63;;;27.70;54.90;;;;;;5044378;28;20082;-68
2022/08/12 07:03:26;;;;;;;5.10;4.38;;;27.70;54.50;;;;;;5047834;28;20550;-69
2022/08/12 07:05:57;;;;;;;7.55;4.32;;;27.70;55.00;;;;;;5048276;28;20040;-67
2022/08/12 07:08:33;;;;;;;7.03;5.10;;;27.70;55.10;;;;;;5046740;28;20033;-69
2022/08/12 07:11:03;;;;;;;3.97;3.60;;;27.70;54.80;;;;;;5031076;28;20397;-68
2022/08/12 07:13:37;;;;;;;7.38;5.63;;;27.60;55.10;;;;;;5049714;28;20397;-70
2022/08/12 07:16:04;;;;;;;7.30;4.15;;;27.60;55.10;;;;;;5040571;28;20458;-72
2022/08/12 07:18:33;;;;;;;6.47;5.10;;;27.60;55.10;;;;;;5038153;28;20037;-71
2022/08/12 07:21:05;;;;;;;5.40;4.85;;;27.60;55.50;;;;;;5029903;28;20573;-71
2022/08/12 07:23:33;;;;;;;6.70;4.13;;;27.50;55.60;;;;;;5030237;28;20475;-70
2022/08/12 07:26:04;;;;;;;3.97;3.20;;;27.60;56.20;;;;;;5033308;28;20553;-71
2022/08/12 07:28:34;;;;;;;9.70;3.42;;;27.60;56.20;;;;;;5070834;28;20047;-71
2022/08/12 07:31:07;;;;;;;6.38;4.97;;;27.60;56.40;;;;;;5060375;28;20029;-71
2022/08/12 07:33:39;;;;;;;5.18;4.22;;;27.50;55.90;;;;;;5058490;28;20033;-70
2022/08/12 07:36:09;;;;;;;5.40;4.45;;;27.60;56.30;;;;;;5050612;28;20025;-71
2022/08/12 07:38:47;;;;;;;4.93;3.72;;;27.60;56.20;;;;;;5051585;28;20032;-72
2022/08/12 07:41:30;;;;;;;4.40;3.28;;;27.60;55.80;;;;;;5060867;28;20049;-72
2022/08/12 07:44:08;;;;;;;1.58;1.48;;;27.60;55.90;;;;;;5059542;28;20029;-72
2022/08/12 07:46:40;;;;;;;4.70;3.50;;;27.70;55.70;;;;;;5051667;28;20033;-70
2022/08/12 07:49:13;;;;;;;7.38;5.13;;;27.70;55.80;;;;;;5051497;28;20082;-71
2022/08/12 07:51:40;;;;;;;8.52;4.70;;;27.60;55.90;;;;;;5051684;28;20426;-74
2022/08/12 07:54:08;;;;;;;2.72;2.47;;;27.70;56.00;;;;;;5054219;28;20036;-75
2022/08/12 07:56:37;;;;;;;6.22;3.67;;;27.70;56.00;;;;;;5071795;28;20421;-70
2022/08/12 07:59:04;;;;;;;5.78;4.05;;;27.60;56.30;;;;;;5064102;28;20512;-73
2022/08/12 08:01:31;;;;;;;6.60;5.05;;;27.60;56.00;;;;;;5058225;28;20025;-73
2022/08/12 08:06:43;;;;;;;5.78;4.55;;;27.60;55.80;;;;;;5055834;28;20124;-73
2022/08/12 08:09:12;;;;;;;8.10;5.68;;;27.60;55.90;;;;;;5054545;28;20024;-74
2022/08/12 08:14:27;;;;;;;5.10;4.05;;;27.40;56.70;;;;;;5051285;28;20397;-71
2022/08/12 08:16:55;;;;;;;4.95;3.75;;;27.40;56.20;;;;;;5057615;28;20025;-71
2022/08/12 08:19:25;;;;;;;6.43;5.18;;;27.40;56.20;;;;;;5061363;28;20055;-71
2022/08/12 08:21:53;;;;;;;6.75;4.30;;;27.60;56.10;;;;;;5051151;28;20355;-71
2022/08/12 08:24:26;;;;;;;6.28;3.97;;;27.50;55.90;;;;;;5051627;28;20445;-75
2022/08/12 08:26:57;;;;;;;5.25;3.70;;;27.60;55.80;;;;;;5058719;28;20036;-73
2022/08/12 08:29:24;;;;;;;6.20;5.28;;;27.70;55.60;;;;;;5068599;28;20035;-75
2022/08/12 08:31:57;;;;;;;8.00;5.97;;;27.50;55.80;;;;;;5064628;28;20087;-73
2022/08/12 08:34:25;;;;;;;8.15;4.07;;;27.50;55.40;;;;;;5051594;28;20045;-74
2022/08/12 08:36:51;;;;;;;6.45;5.20;;;27.50;55.40;;;;;;5051368;28;20504;-71
2022/08/12 08:39:20;;;;;;;7.72;5.22;;;27.50;55.40;;;;;;5068698;28;20094;-75
2022/08/12 08:44:33;;;;;;;6.75;5.20;;;27.50;55.70;;;;;;5052857;28;20037;-75
2022/08/12 08:47:04;;;;;;;9.10;5.53;;;27.60;55.60;;;;;;5052517;28;20032;-75
2022/08/12 08:49:30;;;;;;;3.38;3.08;;;27.60;55.70;;;;;;5064164;28;20056;-75
2022/08/12 08:51:56;;;;;;;0.45;0.45;;;27.50;55.80;;;;;;5070049;28;20676;-75
2022/08/12 08:54:23;;;;;;;4.28;3.30;;;27.70;55.60;;;;;;5071191;28;20054;-74
2022/08/12 08:56:50;;;;;;;9.07;4.85;;;27.60;58.60;;;;;;5069757;28;20186;-76
2022/08/12 08:59:18;;;;;;;7.22;4.93;;;27.70;58.10;;;;;;5061776;28;20055;-75
2022/08/12 09:01:45;;;;;;;6.78;5.63;;;27.80;57.50;;;;;;5074693;28;20055;-75
2022/08/12 09:04:12;;;;;;;5.30;4.30;;;27.70;56.80;;;;;;5059002;28;20063;-74
2022/08/12 09:06:42;;;;;;;6.82;4.95;;;27.70;55.90;;;;;;5072780;28;20032;-76
2022/08/12 09:09:10;;;;;;;10.98;5.28;;;27.60;55.90;;;;;;5071068;28;20053;-74
2022/08/12 09:14:21;;;;;;;6.00;4.28;;;27.70;55.60;;;;;;5034849;28;20567;-74
2022/08/12 09:16:49;;;;;;;6.20;5.28;;;27.80;55.60;;;;;;5035190;28;20113;-74
2022/08/12 09:19:16;;;;;;;6.53;5.18;;;27.70;55.80;;;;;;5064012;28;20036;-75
2022/08/12 09:21:46;;;;;;;6.68;5.80;;;27.70;55.70;;;;;;5056263;28;20016;-75
2022/08/12 09:24:17;;;;;;;2.85;1.95;;;27.70;55.90;;;;;;5059056;28;20422;-73
2022/08/12 09:26:47;;;;;;;1.67;1.57;;;27.80;55.80;;;;;;5073391;28;20086;-74
2022/08/12 09:29:14;;;;;;;7.10;5.43;;;27.80;55.60;;;;;;5074580;28;20036;-73
2022/08/12 09:31:41;;;;;;;6.90;5.70;;;27.80;55.70;;;;;;5074503;28;20103;-72
2022/08/12 09:34:09;;;;;;;4.32;3.92;;;27.70;55.60;;;;;;5055706;28;20041;-73
2022/08/12 09:36:37;;;;;;;6.85;5.90;;;27.80;55.50;;;;;;5062403;28;20071;-71
2022/08/12 09:39:06;;;;;;;4.22;3.83;;;27.70;55.60;;;;;;5060044;28;20048;-70
2022/08/12 09:41:44;;;;;;;4.18;3.15;;;27.70;55.80;;;;;;5062150;28;20043;-73
2022/08/12 09:46:56;;;;;;;7.53;3.83;;;27.80;58.40;;;;;;5068942;28;20102;-73
2022/08/12 09:49:25;;;;;;;8.02;6.03;;;28.00;62.60;;;;;;5053241;28;20036;-73
2022/08/12 09:51:53;;;;;;;5.47;3.35;;;28.10;59.10;;;;;;5053933;28;20043;-75
2022/08/12 09:54:20;;;;;;;2.30;2.10;;;28.10;58.60;;;;;;5054100;28;20036;-73
2022/08/12 09:56:46;;;;;;;6.55;5.10;;;28.10;59.20;;;;;;5054109;28;20055;-75
2022/08/12 09:59:13;;;;;;;11.07;3.25;;;27.90;58.20;;;;;;5062741;28;20024;-74
2022/08/12 10:01:39;;;;;;;4.28;3.35;;;27.90;57.20;;;;;;5056668;28;20029;-72
2022/08/12 10:04:09;;;;;;;3.67;2.78;;;27.90;58.50;;;;;;5053828;28;20474;-74
2022/08/12 10:06:36;;;;;;;2.08;1.88;;;28.10;59.80;;;;;;5063675;28;20439;-75
2022/08/12 10:09:05;;;;;;;4.75;3.08;;;28.20;62.10;;;;;;5061358;28;20025;-74
2022/08/12 10:14:16;;;;;;;6.97;4.60;;;28.40;63.60;;;;;;5061561;28;20021;-72
2022/08/12 10:16:43;;;;;;;5.03;4.00;;;28.50;58.00;;;;;;5062089;28;20024;-72
2022/08/12 10:19:09;;;;;;;4.38;3.53;;;28.40;55.80;;;;;;5051172;28;20021;-73
2022/08/12 10:21:37;;;;;;;6.65;5.28;;;28.30;55.50;;;;;;5058283;28;20033;-74
2022/08/12 10:24:15;;;;;;;2.15;2.05;;;28.20;55.40;;;;;;5057828;28;20501;-74
2022/08/12 10:29:46;;;;;;;2.80;2.60;;;28.20;56.00;;;;;;5070637;28;20533;-72
2022/08/12 10:32:22;;;;;;;0.90;0.88;;;28.30;56.00;;;;;;5073504;28;20047;-72
2022/08/12 10:34:52;;;;;;;6.32;3.80;;;28.20;55.90;;;;;;5087891;28;20604;-73
2022/08/12 10:37:22;;;;;;;7.40;4.80;;;28.20;57.70;;;;;;5062960;28;20028;-72
2022/08/12 10:39:50;;;;;;;7.33;4.57;;;28.30;56.00;;;;;;5035432;28;20028;-71
2022/08/12 10:45:07;;;;;;;6.80;4.28;;;28.20;55.40;;;;;;5053048;28;20044;-72
2022/08/12 10:47:35;;;;;;;10.50;6.18;;;28.20;55.30;;;;;;5053135;28;20089;-73
2022/08/12 10:50:04;;;;;;;13.32;5.85;;;28.20;55.30;;;;;;5052799;28;20044;-73
2022/08/12 10:52:30;;;;;;;10.13;5.57;;;28.10;55.30;;;;;;5053235;28;20126;-73
2022/08/12 10:54:58;;;;;;;3.90;3.25;;;28.10;55.50;;;;;;5052872;28;20469;-73
2022/08/12 10:57:25;;;;;;;9.40;5.93;;;28.20;55.60;;;;;;5053156;28;20032;-73
2022/08/12 10:59:56;;;;;;;7.40;4.97;;;28.00;55.60;;;;;;5052210;28;20110;-72
2022/08/12 11:02:26;;;;;;;7.60;5.47;;;28.00;55.60;;;;;;5052343;28;20061;-72
2022/08/12 11:04:58;;;;;;;6.03;5.20;;;28.10;55.60;;;;;;5062976;28;20064;-72
2022/08/12 11:07:26;;;;;;;6.13;4.95;;;28.10;55.80;;;;;;5052884;28;20033;-72
2022/08/12 11:09:52;;;;;;;8.32;6.53;;;28.00;55.80;;;;;;5052517;28;20040;-72
2022/08/12 11:12:19;;;;;;;8.00;6.25;;;27.90;55.10;;;;;;5052450;28;20037;-72
2022/08/12 11:14:45;;;;;;;7.18;5.32;;;28.00;55.90;;;;;;5053110;28;20037;-73
2022/08/12 11:17:12;;;;;;;9.68;4.50;;;27.90;55.40;;;;;;5052539;28;20040;-75
2022/08/12 11:19:41;;;;;;;8.60;5.90;;;28.00;55.80;;;;;;5052623;28;20112;-74
2022/08/12 11:22:08;;;;;;;6.60;5.07;;;28.00;55.80;;;;;;5052377;28;20374;-74
2022/08/12 11:24:34;;;;;;;7.45;4.88;;;28.00;55.70;;;;;;5056205;28;20488;-74
2022/08/12 11:27:05;;;;;;;8.25;6.38;;;27.90;55.10;;;;;;5052170;28;20037;-73
2022/08/12 11:29:32;;;;;;;7.53;5.32;;;27.90;55.00;;;;;;5060344;28;20050;-74
2022/08/12 11:31:58;;;;;;;11.52;5.43;;;28.00;55.60;;;;;;5062395;28;20036;-74
2022/08/12 11:34:24;;;;;;;7.32;5.40;;;27.90;55.10;;;;;;5058471;28;20033;-75
2022/08/12 11:37:03;;;;;;;10.27;5.30;;;28.00;55.60;;;;;;5053423;28;20029;-75
2022/08/12 11:39:31;;;;;;;7.93;5.47;;;28.00;55.60;;;;;;5058262;28;20029;-74
2022/08/12 11:42:01;;;;;;;9.32;7.53;;;27.90;55.30;;;;;;5065106;28;20099;-73
2022/08/12 11:44:27;;;;;;;9.65;4.90;;;28.00;56.80;;;;;;5067613;28;20028;-71
2022/08/12 11:46:53;;;;;;;10.27;7.13;;;28.00;56.50;;;;;;5062690;28;20048;-74
2022/08/12 11:49:24;;;;;;;8.73;6.18;;;27.90;56.00;;;;;;5057492;28;20035;-73
2022/08/12 11:51:50;;;;;;;11.38;6.65;;;27.90;55.80;;;;;;5051622;28;20025;-71
2022/08/12 11:54:16;;;;;;;8.95;5.35;;;27.90;56.20;;;;;;5031589;28;20453;-72
2022/08/12 11:56:42;;;;;;;6.68;4.57;;;28.00;56.70;;;;;;5014402;28;20037;-71
2022/08/12 11:59:08;;;;;;;8.85;6.80;;;27.90;56.10;;;;;;5036048;28;20108;-71
2022/08/12 12:01:34;;;;;;;6.68;5.00;;;27.70;55.90;;;;;;5052893;28;20028;-70
2022/08/12 12:04:00;;;;;;;4.40;3.80;;;27.90;55.90;;;;;;5051521;28;20480;-70
2022/08/12 12:06:26;;;;;;;1.60;1.48;;;27.80;55.90;;;;;;5051743;28;20389;-71
2022/08/12 12:08:53;;;;;;;11.05;7.72;;;27.80;55.90;;;;;;5051471;28;20048;-73
2022/08/12 12:11:21;;;;;;;9.95;5.20;;;27.70;55.90;;;;;;5051426;28;20124;-74
2022/08/12 12:13:47;;;;;;;8.80;7.13;;;27.70;55.80;;;;;;5055286;28;20123;-74
2022/08/12 12:16:13;;;;;;;8.15;6.60;;;27.80;55.60;;;;;;5056051;28;20028;-74
2022/08/12 12:18:39;;;;;;;8.68;5.93;;;27.80;55.50;;;;;;5056009;28;20085;-73
2022/08/12 12:21:07;;;;;;;10.13;4.93;;;27.90;55.30;;;;;;5055696;28;20025;-75
2022/08/12 12:23:33;;;;;;;8.95;6.57;;;27.90;55.20;;;;;;5055460;28;20029;-75
2022/08/12 12:26:00;;;;;;;9.77;6.82;;;27.90;55.00;;;;;;5055698;28;20095;-75
2022/08/12 12:28:27;;;;;;;7.88;5.93;;;28.00;55.50;;;;;;5055513;28;20039;-78
2022/08/12 12:30:53;;;;;;;7.00;6.10;;;27.90;54.70;;;;;;5061199;28;20450;-77
2022/08/12 12:33:21;;;;;;;8.73;6.97;;;27.90;54.70;;;;;;5055538;28;20040;-77
2022/08/12 12:35:47;;;;;;;11.27;6.88;;;27.90;55.00;;;;;;5055298;28;20033;-76
2022/08/12 12:38:14;;;;;;;7.88;7.07;;;27.80;55.10;;;;;;5055706;28;20029;-74
2022/08/12 12:40:43;;;;;;;7.07;6.00;;;27.70;55.30;;;;;;5053775;28;20060;-76
2022/08/12 12:43:10;;;;;;;10.55;6.68;;;27.70;55.30;;;;;;5055109;28;20041;-75
2022/08/12 12:45:38;;;;;;;9.73;6.03;;;27.80;55.40;;;;;;5055480;28;20039;-76
2022/08/12 12:48:05;;;;;;;7.95;5.97;;;27.60;55.60;;;;;;5068867;28;20432;-76
2022/08/12 12:50:34;;;;;;;7.43;6.50;;;27.60;55.50;;;;;;5068776;28;20653;-75
2022/08/12 12:53:00;;;;;;;7.40;6.60;;;27.60;55.50;;;;;;5054749;28;20029;-76
2022/08/12 12:55:26;;;;;;;7.70;5.90;;;27.60;55.70;;;;;;5052703;28;20051;-76
2022/08/12 12:57:53;;;;;;;8.15;5.75;;;27.50;55.70;;;;;;5059799;28;20021;-76
2022/08/12 13:00:20;;;;;;;5.05;3.40;;;27.50;55.60;;;;;;5073895;28;20037;-77
2022/08/12 13:02:52;;;;;;;12.88;7.10;;;27.50;55.70;;;;;;5073342;28;20029;-75
2022/08/12 13:05:20;;;;;;;10.80;5.85;;;27.50;55.80;;;;;;5074858;28;20037;-77
2022/08/12 13:07:47;;;;;;;8.02;6.47;;;27.40;55.90;;;;;;5074867;28;20056;-76
2022/08/12 13:10:14;;;;;;;4.72;3.40;;;27.50;55.90;;;;;;5069674;28;20033;-72
2022/08/12 13:12:41;;;;;;;2.42;1.83;;;27.50;56.20;;;;;;5055062;28;20037;-72
2022/08/12 13:15:14;;;;;;;7.78;5.28;;;27.50;56.20;;;;;;5054509;28;20082;-72
2022/08/12 13:17:54;;;;;;;7.93;5.85;;;27.50;56.00;;;;;;5053363;28;20025;-72
2022/08/12 13:20:21;;;;;;;9.43;5.53;;;27.40;56.00;;;;;;5053598;28;20033;-71
2022/08/12 13:22:48;;;;;;;9.20;5.43;;;27.40;56.10;;;;;;5053105;28;20037;-71
2022/08/12 13:25:18;;;;;;;3.13;2.63;;;27.50;56.20;;;;;;5054477;28;20458;-71
2022/08/12 13:27:49;;;;;;;8.18;5.82;;;27.40;56.40;;;;;;5054480;28;20033;-70
2022/08/12 13:30:20;;;;;;;3.40;2.35;;;27.50;56.30;;;;;;5054095;28;20032;-71
2022/08/12 13:32:56;;;;;;;5.28;3.83;;;27.50;56.40;;;;;;5054263;28;20045;-71
2022/08/12 13:35:22;;;;;;;6.85;5.25;;;27.50;56.40;;;;;;5054003;28;20029;-71
2022/08/12 13:37:53;;;;;;;6.20;4.70;;;27.40;56.40;;;;;;5054287;28;20064;-70
2022/08/12 13:40:20;;;;;;;7.25;5.93;;;27.50;56.20;;;;;;5054012;28;20449;-71
2022/08/12 13:42:47;;;;;;;10.02;7.05;;;27.60;56.20;;;;;;5052679;28;20056;-71
2022/08/12 13:45:15;;;;;;;6.07;4.68;;;27.50;56.10;;;;;;5053872;28;20041;-71
2022/08/12 13:47:58;;;;;;;8.55;6.18;;;27.50;56.10;;;;;;5053965;28;20025;-71
2022/08/12 13:50:36;;;;;;;4.47;4.07;;;27.60;56.10;;;;;;5053795;28;20056;-71
2022/08/12 13:53:08;;;;;;;10.57;6.07;;;27.50;56.10;;;;;;5053838;28;20071;-71
2022/08/12 13:55:35;;;;;;;9.43;5.40;;;27.60;56.10;;;;;;5057610;28;20386;-71
2022/08/12 13:58:04;;;;;;;5.00;3.50;;;27.70;56.10;;;;;;5069652;28;20033;-71
2022/08/12 14:00:32;;;;;;;5.63;3.50;;;27.50;55.90;;;;;;5071429;28;20134;-70
2022/08/12 14:02:59;;;;;;;5.78;2.75;;;27.60;55.90;;;;;;5073510;28;20040;-71
2022/08/12 14:05:26;;;;;;;3.22;2.78;;;27.60;56.10;;;;;;5072326;28;20044;-71
2022/08/12 14:07:56;;;;;;;5.20;4.03;;;27.50;56.00;;;;;;5068466;28;20037;-71
2022/08/12 14:10:36;;;;;;;7.97;5.90;;;27.60;56.10;;;;;;5053523;28;20509;-70
2022/08/12 14:13:20;;;;;;;5.85;4.40;;;27.40;56.10;;;;;;5053602;28;20041;-71
2022/08/12 14:15:49;;;;;;;4.65;2.83;;;27.50;56.20;;;;;;5053384;28;20025;-71
2022/08/12 14:18:17;;;;;;;6.63;5.45;;;27.50;56.30;;;;;;5053315;28;20021;-71
2022/08/12 14:20:48;;;;;;;3.47;2.60;;;27.50;56.30;;;;;;5053107;28;20073;-71
2022/08/12 14:23:17;;;;;;;6.72;4.25;;;27.50;56.30;;;;;;5032015;28;20034;-71
2022/08/12 14:25:43;;;;;;;3.85;3.20;;;27.50;56.30;;;;;;5042133;28;20033;-71
2022/08/12 14:28:15;;;;;;;5.65;2.95;;;27.50;56.30;;;;;;5052768;28;20029;-71
2022/08/12 14:30:52;;;;;;;3.75;2.90;;;27.50;56.30;;;;;;5053001;28;20029;-76
2022/08/12 14:33:23;;;;;;;3.55;3.22;;;27.50;56.20;;;;;;5052812;28;20108;-71
2022/08/12 14:35:51;;;;;;;6.28;5.38;;;27.60;56.30;;;;;;5052707;28;20040;-72
2022/08/12 14:38:21;;;;;;;7.97;5.53;;;27.50;56.40;;;;;;5053002;28;20029;-69
2022/08/12 14:40:55;;;;;;;5.82;4.07;;;27.50;56.30;;;;;;5053164;28;20187;-72
2022/08/12 14:43:22;;;;;;;2.17;2.05;;;27.50;56.30;;;;;;5051903;28;20126;-73
2022/08/12 14:45:48;;;;;;;8.80;5.15;;;27.70;56.40;;;;;;5052586;28;20191;-72
2022/08/12 14:48:20;;;;;;;5.65;4.70;;;27.50;56.50;;;;;;5052526;28;20036;-71